createdAt,value
2017-08-25T00:01:26.790Z,17.26
2017-08-25T00:03:53.224Z,17.24
2017-08-25T00:06:19.656Z,17.25
2017-08-25T00:08:46.095Z,17.24
2017-08-25T00:11:12.529Z,17.19
2017-08-25T00:13:38.969Z,17.20
2017-08-25T00:16:05.502Z,17.15
2017-08-25T00:18:31.935Z,17.24
2017-08-25T00:20:58.373Z,17.16
2017-08-25T00:23:24.808Z,17.08
2017-08-25T00:25:51.342Z,17.09
2017-08-25T00:28:17.778Z,17.08
2017-08-25T00:30:44.213Z,16.83
2017-08-25T00:33:10.687Z,16.94
2017-08-25T00:35:37.205Z,16.79
2017-08-25T00:38:03.620Z,16.85
2017-08-25T00:40:30.040Z,16.86
2017-08-25T00:42:56.492Z,16.86
2017-08-25T00:45:22.979Z,16.88
2017-08-25T00:47:49.360Z,16.85
2017-08-25T00:50:15.795Z,16.86
2017-08-25T00:52:42.186Z,16.88
2017-08-25T00:55:08.625Z,16.88
2017-08-25T00:57:35.097Z,16.88
2017-08-25T01:00:01.535Z,16.92
2017-08-25T01:02:27.969Z,16.91
2017-08-25T01:04:54.506Z,16.88
2017-08-25T01:07:20.896Z,16.79
2017-08-25T01:09:47.378Z,16.76
2017-08-25T01:12:13.855Z,16.82
2017-08-25T01:14:40.350Z,16.81
2017-08-25T01:17:06.784Z,16.70
2017-08-25T01:19:33.421Z,16.66
2017-08-25T01:21:59.860Z,16.55
2017-08-25T01:24:26.377Z,16.45
2017-08-25T01:26:52.819Z,16.34
2017-08-25T01:29:19.220Z,16.16
2017-08-25T01:31:45.587Z,16.12
2017-08-25T01:34:12.033Z,16.19
2017-08-25T01:36:38.470Z,16.15
2017-08-25T01:39:04.906Z,16.02
2017-08-25T01:41:31.339Z,15.97
2017-08-25T01:43:57.695Z,15.80
2017-08-25T01:46:24.184Z,15.60
2017-08-25T01:48:50.648Z,15.47
2017-08-25T01:51:17.076Z,15.34
2017-08-25T01:53:43.468Z,15.37
2017-08-25T01:56:09.949Z,15.54
2017-08-25T01:58:36.384Z,15.54
2017-08-25T02:01:02.773Z,15.73
2017-08-25T02:03:29.200Z,15.82
2017-08-25T02:05:55.686Z,15.78
2017-08-25T02:08:22.120Z,15.62
2017-08-25T02:10:48.518Z,15.52
2017-08-25T02:13:14.950Z,15.68
2017-08-25T02:15:41.375Z,15.76
2017-08-25T02:18:07.810Z,15.75
2017-08-25T02:20:34.290Z,15.64
2017-08-25T02:23:00.685Z,15.63
2017-08-25T02:25:27.198Z,15.53
2017-08-25T02:27:53.666Z,15.42
2017-08-25T02:30:20.137Z,15.12
2017-08-25T02:32:46.573Z,15.27
2017-08-25T02:35:13.109Z,15.29
2017-08-25T02:37:39.546Z,15.36
2017-08-25T02:40:05.996Z,15.48
2017-08-25T02:42:32.483Z,15.50
2017-08-25T02:44:58.928Z,15.53
2017-08-25T02:47:25.370Z,15.42
2017-08-25T02:49:51.772Z,15.55
2017-08-25T02:52:18.298Z,15.55
2017-08-25T02:54:44.792Z,15.55
2017-08-25T02:57:11.179Z,15.57
2017-08-25T02:59:37.663Z,15.60
2017-08-25T03:02:04.220Z,15.63
2017-08-25T03:04:30.718Z,15.65
2017-08-25T03:06:57.160Z,15.69
2017-08-25T03:09:23.606Z,15.71
2017-08-25T03:11:50.044Z,15.69
2017-08-25T03:14:16.478Z,15.58
2017-08-25T03:16:42.914Z,15.75
2017-08-25T03:19:09.346Z,15.61
2017-08-25T03:21:35.780Z,15.59
2017-08-25T03:24:02.174Z,15.62
2017-08-25T03:26:28.654Z,15.65
2017-08-25T03:28:55.067Z,15.70
2017-08-25T03:31:21.522Z,15.71
2017-08-25T03:33:47.957Z,15.71
2017-08-25T03:36:14.495Z,15.63
2017-08-25T03:38:40.930Z,15.65
2017-08-25T03:41:07.327Z,15.61
2017-08-25T03:43:33.798Z,15.56
2017-08-25T03:46:00.335Z,15.51
2017-08-25T03:48:26.769Z,15.40
2017-08-25T03:50:53.157Z,15.22
2017-08-25T03:53:19.639Z,15.10
2017-08-25T03:55:46.132Z,15.21
2017-08-25T03:58:12.580Z,15.25
2017-08-25T04:00:39.015Z,15.28
2017-08-25T04:03:05.481Z,15.30
2017-08-25T04:05:32.015Z,15.21
2017-08-25T04:07:58.456Z,15.16
2017-08-25T04:10:24.890Z,15.27
2017-08-25T04:12:51.325Z,15.35
2017-08-25T04:15:17.847Z,15.47
2017-08-25T04:17:44.297Z,15.53
2017-08-25T04:20:10.735Z,15.61
2017-08-25T04:22:37.165Z,15.72
2017-08-25T04:25:03.632Z,15.82
2017-08-25T04:27:30.163Z,15.89
2017-08-25T04:29:56.574Z,16.00
2017-08-25T04:32:22.960Z,16.13
2017-08-25T04:34:49.441Z,16.30
2017-08-25T04:37:15.879Z,16.42
2017-08-25T04:39:42.474Z,16.54
2017-08-25T04:42:08.848Z,16.65
2017-08-25T04:44:35.348Z,16.75
2017-08-25T04:47:01.772Z,16.87
2017-08-25T04:49:28.256Z,16.99
2017-08-25T04:51:54.690Z,17.10
2017-08-25T04:54:21.124Z,17.14
2017-08-25T04:56:47.560Z,17.20
2017-08-25T04:59:13.999Z,17.15
2017-08-25T05:01:40.532Z,17.05
2017-08-25T05:04:06.968Z,17.07
2017-08-25T05:06:33.403Z,17.08
2017-08-25T05:08:59.834Z,17.12
2017-08-25T05:11:26.295Z,17.20
2017-08-25T05:13:52.809Z,17.23
2017-08-25T05:16:19.346Z,17.41
2017-08-25T05:18:45.883Z,17.51
2017-08-25T05:21:12.294Z,17.61
2017-08-25T05:23:38.737Z,17.70
2017-08-25T05:26:05.293Z,17.87
2017-08-25T05:28:31.729Z,18.05
2017-08-25T05:30:58.162Z,18.19
2017-08-25T05:33:24.697Z,18.29
2017-08-25T05:35:51.543Z,18.42
2017-08-25T05:38:18.164Z,18.53
2017-08-25T05:40:44.828Z,18.66
2017-08-25T05:43:11.578Z,18.77
2017-08-25T05:45:38.056Z,18.88
2017-08-25T05:48:04.636Z,18.96
2017-08-25T05:50:31.279Z,19.09
2017-08-25T05:52:57.817Z,19.27
2017-08-25T05:55:24.363Z,19.45
2017-08-25T05:57:50.789Z,19.58
2017-08-25T06:00:17.315Z,19.72
2017-08-25T06:02:43.693Z,19.81
2017-08-25T06:05:10.161Z,20.00
2017-08-25T06:07:36.629Z,20.05
2017-08-25T06:10:03.377Z,20.17
2017-08-25T06:12:29.913Z,20.18
2017-08-25T06:14:56.553Z,20.31
2017-08-25T06:17:23.999Z,20.44
2017-08-25T06:19:50.469Z,20.63
2017-08-25T06:22:16.948Z,20.78
2017-08-25T06:24:43.623Z,20.87
2017-08-25T06:27:10.160Z,20.90
2017-08-25T06:29:36.543Z,21.15
2017-08-25T06:32:03.257Z,21.32
2017-08-25T06:34:29.875Z,21.47
2017-08-25T06:36:56.512Z,21.59
2017-08-25T06:39:22.999Z,21.73
2017-08-25T06:41:49.483Z,21.87
2017-08-25T06:44:15.972Z,22.05
2017-08-25T06:46:42.520Z,21.98
2017-08-25T06:49:08.957Z,22.05
2017-08-25T06:51:35.632Z,22.19
2017-08-25T06:54:02.174Z,22.37
2017-08-25T06:56:28.709Z,22.56
2017-08-25T06:58:55.142Z,22.69
2017-08-25T07:01:21.577Z,22.68
2017-08-25T07:03:48.012Z,22.78
2017-08-25T07:06:14.513Z,22.91
2017-08-25T07:08:40.936Z,22.93
2017-08-25T07:11:07.419Z,23.12
2017-08-25T07:13:34.128Z,23.27
2017-08-25T07:16:00.648Z,23.44
2017-08-25T07:18:27.119Z,23.50
2017-08-25T07:20:53.568Z,23.62
2017-08-25T07:23:20.309Z,23.80
2017-08-25T07:25:46.846Z,23.91
2017-08-25T07:28:13.282Z,23.95
2017-08-25T07:30:40.073Z,24.05
2017-08-25T07:33:06.560Z,24.24
2017-08-25T07:35:33.097Z,24.41
2017-08-25T07:38:00.560Z,24.57
2017-08-25T07:40:27.044Z,24.78
2017-08-25T07:42:53.506Z,24.90
2017-08-25T07:45:20.171Z,24.95
2017-08-25T07:47:46.704Z,25.20
2017-08-25T07:50:13.088Z,25.32
2017-08-25T07:52:39.677Z,25.46
2017-08-25T07:55:06.215Z,25.52
2017-08-25T07:57:32.751Z,25.62
2017-08-25T07:59:59.595Z,25.78
2017-08-25T08:02:26.112Z,25.69
2017-08-25T08:04:52.670Z,25.96
2017-08-25T08:07:19.260Z,25.92
2017-08-25T08:09:45.660Z,26.04
2017-08-25T08:12:12.077Z,26.10
2017-08-25T08:14:38.818Z,26.21
2017-08-25T08:17:05.356Z,26.40
2017-08-25T08:19:31.894Z,26.47
2017-08-25T08:21:58.713Z,26.48
2017-08-25T08:24:25.172Z,26.66
2017-08-25T08:26:51.608Z,26.74
2017-08-25T08:29:18.084Z,26.67
2017-08-25T08:31:44.580Z,26.58
2017-08-25T08:34:11.116Z,26.57
2017-08-25T08:36:37.662Z,26.98
2017-08-25T08:39:04.192Z,27.00
2017-08-25T08:41:30.624Z,27.22
2017-08-25T08:43:57.267Z,27.35
2017-08-25T08:46:23.760Z,27.44
2017-08-25T08:48:50.189Z,27.57
2017-08-25T08:51:16.881Z,27.64
2017-08-25T08:53:43.310Z,27.57
2017-08-25T08:56:09.851Z,27.54
2017-08-25T08:58:36.595Z,27.56
2017-08-25T09:01:03.129Z,27.65
2017-08-25T09:03:29.687Z,27.76
2017-08-25T09:05:56.204Z,27.87
2017-08-25T09:08:22.741Z,27.94
2017-08-25T09:10:49.586Z,27.94
2017-08-25T09:13:16.225Z,27.90
2017-08-25T09:15:42.712Z,28.00
2017-08-25T09:18:09.196Z,28.02
2017-08-25T09:20:35.939Z,27.98
2017-08-25T09:23:02.374Z,28.04
2017-08-25T09:25:28.838Z,28.15
2017-08-25T09:27:55.339Z,27.94
2017-08-25T09:30:22.282Z,28.02
2017-08-25T09:32:48.727Z,28.03
2017-08-25T09:35:15.271Z,28.08
2017-08-25T09:37:42.113Z,28.24
2017-08-25T09:40:08.548Z,28.30
2017-08-25T09:42:34.932Z,28.35
2017-08-25T09:45:01.799Z,28.44
2017-08-25T09:47:28.256Z,28.45
2017-08-25T09:49:55.412Z,28.36
2017-08-25T09:52:21.864Z,28.24
2017-08-25T09:54:48.364Z,28.39
2017-08-25T09:57:14.936Z,28.35
2017-08-25T09:59:42.277Z,28.43
2017-08-25T10:02:08.845Z,28.54
2017-08-25T10:04:35.457Z,28.67
2017-08-25T10:07:01.993Z,28.77
2017-08-25T10:09:28.530Z,28.74
2017-08-25T10:11:55.271Z,28.76
2017-08-25T10:14:21.705Z,28.76
2017-08-25T10:16:48.140Z,28.78
2017-08-25T10:19:15.143Z,28.68
2017-08-25T10:21:41.723Z,28.66
2017-08-25T10:24:08.368Z,28.71
2017-08-25T10:26:34.966Z,28.73
2017-08-25T10:29:01.646Z,28.90
2017-08-25T10:31:28.296Z,29.05
2017-08-25T10:33:56.088Z,29.18
2017-08-25T10:36:22.919Z,29.18
2017-08-25T10:38:49.332Z,29.08
2017-08-25T10:41:16.073Z,29.17
2017-08-25T10:43:42.611Z,29.43
2017-08-25T10:46:09.255Z,29.37
2017-08-25T10:48:36.381Z,29.31
2017-08-25T10:51:03.588Z,29.28
2017-08-25T10:53:31.351Z,29.35
2017-08-25T10:55:58.894Z,29.31
2017-08-25T10:58:26.831Z,29.32
2017-08-25T11:00:53.297Z,29.31
2017-08-25T11:03:20.134Z,29.18
2017-08-25T11:05:46.671Z,29.34
2017-08-25T11:08:13.620Z,29.51
2017-08-25T11:10:40.464Z,29.48
2017-08-25T11:13:07.202Z,29.56
2017-08-25T11:15:33.636Z,29.59
2017-08-25T11:18:00.475Z,29.66
2017-08-25T11:20:26.914Z,29.74
2017-08-25T11:22:53.459Z,29.68
2017-08-25T11:25:20.404Z,29.77
2017-08-25T11:27:46.941Z,30.04
2017-08-25T11:30:13.496Z,30.41
2017-08-25T11:32:40.371Z,30.85
2017-08-25T11:35:06.960Z,31.70
2017-08-25T11:37:33.503Z,32.94
2017-08-25T11:40:00.496Z,33.66
2017-08-25T11:42:26.932Z,34.02
2017-08-25T11:44:53.518Z,34.29
2017-08-25T11:47:20.157Z,34.89
2017-08-25T11:49:47.564Z,35.63
2017-08-25T11:52:14.004Z,36.50
2017-08-25T11:54:40.597Z,36.98
2017-08-25T11:57:07.126Z,37.53
2017-08-25T11:59:33.560Z,38.21
2017-08-25T12:02:00.406Z,38.93
2017-08-25T12:04:26.840Z,39.16
2017-08-25T12:06:53.279Z,39.68
2017-08-25T12:09:19.728Z,39.75
2017-08-25T12:11:46.144Z,39.82
2017-08-25T12:14:12.581Z,40.04
2017-08-25T12:16:39.629Z,40.52
2017-08-25T12:19:06.065Z,40.24
2017-08-25T12:21:32.600Z,40.53
2017-08-25T12:23:59.240Z,40.90
2017-08-25T12:26:26.088Z,41.11
2017-08-25T12:28:52.521Z,41.23
2017-08-25T12:31:19.149Z,41.48
2017-08-25T12:33:45.697Z,41.91
2017-08-25T12:36:12.184Z,41.62
2017-08-25T12:38:39.029Z,41.39
2017-08-25T12:41:05.514Z,41.11
2017-08-25T12:43:31.952Z,40.90
2017-08-25T12:45:59.098Z,41.16
2017-08-25T12:48:25.535Z,40.84
2017-08-25T12:50:51.971Z,41.19
2017-08-25T12:53:18.817Z,41.96
2017-08-25T12:55:45.353Z,43.00
2017-08-25T12:58:11.786Z,44.09
2017-08-25T13:00:38.631Z,44.54
2017-08-25T13:03:05.190Z,44.89
2017-08-25T13:05:32.246Z,44.32
2017-08-25T13:07:59.144Z,43.75
2017-08-25T13:10:25.587Z,44.49
2017-08-25T13:12:52.057Z,45.41
2017-08-25T13:15:18.571Z,45.76
2017-08-25T13:17:45.927Z,45.92
2017-08-25T13:20:12.363Z,45.67
2017-08-25T13:22:38.797Z,46.06
2017-08-25T13:25:05.549Z,46.22
2017-08-25T13:27:31.974Z,45.86
2017-08-25T13:29:59.126Z,46.45
2017-08-25T13:32:25.513Z,46.54
2017-08-25T13:34:51.913Z,46.57
2017-08-25T13:37:18.530Z,46.42
2017-08-25T13:39:44.968Z,46.45
2017-08-25T13:42:11.505Z,46.28
2017-08-25T13:44:38.050Z,46.40
2017-08-25T13:47:04.939Z,46.21
2017-08-25T13:49:31.443Z,45.95
2017-08-25T13:51:57.962Z,45.66
2017-08-25T13:54:24.504Z,45.32
2017-08-25T13:56:50.987Z,44.27
2017-08-25T13:59:17.414Z,42.53
2017-08-25T14:01:43.957Z,40.88
2017-08-25T14:04:10.462Z,39.61
2017-08-25T14:06:36.934Z,38.60
2017-08-25T14:09:03.413Z,37.74
2017-08-25T14:11:29.951Z,36.69
2017-08-25T14:13:57.161Z,35.89
2017-08-25T14:16:23.741Z,35.32
2017-08-25T14:18:50.177Z,34.56
2017-08-25T14:21:16.612Z,34.05
2017-08-25T14:23:43.559Z,33.44
2017-08-25T14:26:10.047Z,33.24
2017-08-25T14:28:36.530Z,32.82
2017-08-25T14:31:03.197Z,32.62
2017-08-25T14:33:29.705Z,32.55
2017-08-25T14:35:56.168Z,32.50
2017-08-25T14:38:23.088Z,32.33
2017-08-25T14:40:49.577Z,32.28
2017-08-25T14:43:16.775Z,32.19
2017-08-25T14:45:43.622Z,32.08
2017-08-25T14:48:10.142Z,31.70
2017-08-25T14:50:36.695Z,31.74
2017-08-25T14:53:03.846Z,31.55
2017-08-25T14:55:30.385Z,31.14
2017-08-25T14:57:56.824Z,31.08
2017-08-25T15:00:23.257Z,30.94
2017-08-25T15:02:50.075Z,30.95
2017-08-25T15:05:16.587Z,31.03
2017-08-25T15:07:43.029Z,30.97
2017-08-25T15:10:10.139Z,30.77
2017-08-25T15:12:36.657Z,30.61
2017-08-25T15:15:03.197Z,30.54
2017-08-25T15:17:31.493Z,30.50
2017-08-25T15:19:58.931Z,30.38
2017-08-25T15:22:28.870Z,30.54
2017-08-25T15:24:58.832Z,30.37
2017-08-25T15:27:30.561Z,30.38
2017-08-25T15:30:07.588Z,30.35
2017-08-25T15:35:18.901Z,30.36
2017-08-25T15:37:45.552Z,30.37
2017-08-25T15:40:11.962Z,30.41
2017-08-25T15:42:38.624Z,30.26
2017-08-25T15:45:06.089Z,30.35
2017-08-25T15:47:32.621Z,30.32
2017-08-25T15:49:59.568Z,30.27
2017-08-25T15:52:26.818Z,30.24
2017-08-25T15:54:53.358Z,30.15
2017-08-25T15:57:19.895Z,30.02
2017-08-25T15:59:46.330Z,29.83
2017-08-25T16:02:12.765Z,29.75
2017-08-25T16:04:39.507Z,29.76
2017-08-25T16:07:05.882Z,29.73
2017-08-25T16:09:32.332Z,29.70
2017-08-25T16:11:58.801Z,29.65
2017-08-25T16:14:25.225Z,29.61
2017-08-25T16:16:51.635Z,29.60
2017-08-25T16:19:18.103Z,29.45
2017-08-25T16:21:44.859Z,29.37
2017-08-25T16:24:11.294Z,29.31
2017-08-25T16:26:37.730Z,29.24
2017-08-25T16:29:04.115Z,29.19
2017-08-25T16:31:30.599Z,29.09
2017-08-25T16:33:57.443Z,29.02
2017-08-25T16:36:24.002Z,28.93
2017-08-25T16:38:50.437Z,28.82
2017-08-25T16:41:16.940Z,28.71
2017-08-25T16:43:43.396Z,28.63
2017-08-25T16:46:09.925Z,28.50
2017-08-25T16:48:36.344Z,28.37
2017-08-25T16:51:02.960Z,28.25
2017-08-25T16:53:29.434Z,28.13
2017-08-25T16:55:55.937Z,28.03
2017-08-25T16:58:22.390Z,27.92
2017-08-25T17:00:48.833Z,27.80
2017-08-25T17:03:15.483Z,27.69
2017-08-25T17:05:42.019Z,27.59
2017-08-25T17:08:08.415Z,27.44
2017-08-25T17:10:34.786Z,27.28
2017-08-25T17:13:01.176Z,27.16
2017-08-25T17:15:27.643Z,26.99
2017-08-25T17:17:54.093Z,26.98
2017-08-25T17:20:20.478Z,26.84
2017-08-25T17:22:47.325Z,26.75
2017-08-25T17:25:13.805Z,26.65
2017-08-25T17:27:40.195Z,26.59
2017-08-25T17:30:06.675Z,26.51
2017-08-25T17:32:33.417Z,26.41
2017-08-25T17:34:59.913Z,26.30
2017-08-25T17:37:26.389Z,26.23
2017-08-25T17:39:52.822Z,26.13
2017-08-25T17:42:19.259Z,26.04
2017-08-25T17:44:45.692Z,25.78
2017-08-25T17:47:12.129Z,25.87
2017-08-25T17:49:38.563Z,25.85
2017-08-25T17:52:05.155Z,25.79
2017-08-25T17:54:31.629Z,25.70
2017-08-25T17:56:58.073Z,25.56
2017-08-25T17:59:24.815Z,25.38
2017-08-25T18:01:51.200Z,25.24
2017-08-25T18:04:18.095Z,25.19
2017-08-25T18:06:44.529Z,25.12
2017-08-25T18:09:10.966Z,25.01
2017-08-25T18:11:37.400Z,24.93
2017-08-25T18:14:03.834Z,24.88
2017-08-25T18:16:30.372Z,24.84
2017-08-25T18:18:56.806Z,24.82
2017-08-25T18:21:24.061Z,24.77
2017-08-25T18:23:50.495Z,24.77
2017-08-25T18:26:16.993Z,24.72
2017-08-25T18:28:43.365Z,24.63
2017-08-25T18:31:09.803Z,24.56
2017-08-25T18:33:36.639Z,24.42
2017-08-25T18:36:03.183Z,24.29
2017-08-25T18:38:29.617Z,24.20
2017-08-25T18:40:56.054Z,24.21
2017-08-25T18:43:22.541Z,24.12
2017-08-25T18:45:48.982Z,24.01
2017-08-25T18:48:15.446Z,23.92
2017-08-25T18:50:41.888Z,23.76
2017-08-25T18:53:08.331Z,23.54
2017-08-25T18:55:34.868Z,23.35
2017-08-25T18:58:01.255Z,23.29
2017-08-25T19:00:27.605Z,23.28
2017-08-25T19:02:54.051Z,23.32
2017-08-25T19:05:20.605Z,23.14
2017-08-25T19:07:46.992Z,23.28
2017-08-25T19:10:13.474Z,23.17
2017-08-25T19:12:39.871Z,23.02
2017-08-25T19:15:06.345Z,22.89
2017-08-25T19:17:32.779Z,22.95
2017-08-25T19:19:59.215Z,22.90
2017-08-25T19:22:25.649Z,22.79
2017-08-25T19:24:52.160Z,22.72
2017-08-25T19:27:18.622Z,22.67
2017-08-25T19:29:45.000Z,22.38
2017-08-25T19:32:11.492Z,22.53
2017-08-25T19:34:38.647Z,22.48
2017-08-25T19:37:05.034Z,22.37
2017-08-25T19:39:31.616Z,22.26
2017-08-25T19:41:58.051Z,22.18
2017-08-25T19:44:24.505Z,22.08
2017-08-25T19:46:50.926Z,22.06
2017-08-25T19:49:17.358Z,22.03
2017-08-25T19:51:44.509Z,21.94
2017-08-25T19:54:11.001Z,21.87
2017-08-25T19:56:37.437Z,21.80
2017-08-25T19:59:03.881Z,21.69
2017-08-25T20:01:30.349Z,21.66
2017-08-25T20:03:56.786Z,21.68
2017-08-25T20:06:23.321Z,21.66
2017-08-25T20:08:49.757Z,21.65
2017-08-25T20:11:16.190Z,21.66
2017-08-25T20:13:42.580Z,21.64
2017-08-25T20:16:09.016Z,21.62
2017-08-25T20:18:35.495Z,21.53
2017-08-25T20:21:01.879Z,21.62
2017-08-25T20:23:28.774Z,21.60
2017-08-25T20:25:55.312Z,21.53
2017-08-25T20:28:21.747Z,21.42
2017-08-25T20:30:48.184Z,21.30
2017-08-25T20:33:14.617Z,21.27
2017-08-25T20:35:41.107Z,21.26
2017-08-25T20:38:07.486Z,21.23
2017-08-25T20:40:33.876Z,21.18
2017-08-25T20:43:00.307Z,21.17
2017-08-25T20:45:27.612Z,21.20
2017-08-25T20:47:54.046Z,21.15
2017-08-25T20:50:20.479Z,21.02
2017-08-25T20:52:46.918Z,20.98
2017-08-25T20:55:13.403Z,20.87
2017-08-25T20:57:39.884Z,20.74
2017-08-25T21:00:06.328Z,20.76
2017-08-25T21:02:32.758Z,20.76
2017-08-25T21:04:59.264Z,20.74
2017-08-25T21:07:25.728Z,20.77
2017-08-25T21:09:52.116Z,20.65
2017-08-25T21:12:18.598Z,20.80
2017-08-25T21:14:45.135Z,20.75
2017-08-25T21:17:11.572Z,20.62
2017-08-25T21:19:38.110Z,20.49
2017-08-25T21:22:04.544Z,20.50
2017-08-25T21:24:31.800Z,20.46
2017-08-25T21:26:58.334Z,20.27
2017-08-25T21:29:24.815Z,20.12
2017-08-25T21:31:51.305Z,20.03
2017-08-25T21:34:17.744Z,19.99
2017-08-25T21:36:44.181Z,19.92
2017-08-25T21:39:10.613Z,19.92
2017-08-25T21:41:37.004Z,20.00
2017-08-25T21:44:03.481Z,20.01
2017-08-25T21:46:30.020Z,20.01
2017-08-25T21:48:56.459Z,20.01
2017-08-25T21:51:22.891Z,20.05
2017-08-25T21:53:49.324Z,20.06
2017-08-25T21:56:15.862Z,19.86
2017-08-25T21:58:42.295Z,19.77
2017-08-25T22:01:08.730Z,19.70
2017-08-25T22:03:35.165Z,19.72
2017-08-25T22:06:01.701Z,19.81
2017-08-25T22:08:28.137Z,19.86
2017-08-25T22:10:54.540Z,19.79
2017-08-25T22:13:20.912Z,19.68
2017-08-25T22:15:47.446Z,19.60
2017-08-25T22:18:13.844Z,19.56
2017-08-25T22:20:40.310Z,19.62
2017-08-25T22:23:06.746Z,19.61
2017-08-25T22:25:33.286Z,19.61
2017-08-25T22:27:59.647Z,19.53
2017-08-25T22:30:26.130Z,19.52
2017-08-25T22:32:53.512Z,19.54
2017-08-25T22:35:20.048Z,19.60
2017-08-25T22:37:46.481Z,19.55
2017-08-25T22:40:12.940Z,19.45
2017-08-25T22:42:39.352Z,19.33
2017-08-25T22:45:05.889Z,19.33
2017-08-25T22:47:32.275Z,19.36
2017-08-25T22:49:59.580Z,19.20
2017-08-25T22:52:26.013Z,19.33
2017-08-25T22:54:52.522Z,19.31
2017-08-25T22:57:19.600Z,19.36
2017-08-25T22:59:46.096Z,19.27
2017-08-25T23:02:12.469Z,19.22
2017-08-25T23:04:38.962Z,19.15
2017-08-25T23:07:05.444Z,19.26
2017-08-25T23:09:31.876Z,19.20
2017-08-25T23:11:59.132Z,19.22
2017-08-25T23:14:25.565Z,19.26
2017-08-25T23:16:51.955Z,19.13
2017-08-25T23:19:18.541Z,19.04
2017-08-25T23:21:44.997Z,19.08
2017-08-25T23:24:11.407Z,19.12
2017-08-25T23:26:37.843Z,19.13
2017-08-25T23:29:04.380Z,19.17
2017-08-25T23:31:30.815Z,19.19
2017-08-25T23:33:57.251Z,19.19
2017-08-25T23:36:23.788Z,19.10
2017-08-25T23:38:50.223Z,18.92
2017-08-25T23:41:16.618Z,18.83
2017-08-25T23:43:43.054Z,18.83
2017-08-25T23:46:09.570Z,18.96
2017-08-25T23:48:36.063Z,18.92
2017-08-25T23:51:03.213Z,18.82
2017-08-25T23:53:29.652Z,18.82
2017-08-25T23:55:56.188Z,18.85
2017-08-25T23:58:22.623Z,18.88
